sensor_id;sensor_type;location;lat;lon;timestamp;pressure;altitude;pressure_sealevel;temperature
42197;BMP280;27866;48.146;17.098;2023-09-19T00:01:24;98974.81;;;24.85
42197;BMP280;27866;48.146;17.098;2023-09-19T00:05:38;98974.81;;;24.85
42197;BMP280;27866;48.146;17.098;2023-09-19T00:09:49;98992.53;;;24.84
42197;BMP280;27866;48.146;17.098;2023-09-19T00:14:00;98988.94;;;24.73
42197;BMP280;27866;48.146;17.098;2023-09-19T00:18:13;98996.06;;;24.72
42197;BMP280;27866;48.146;17.098;2023-09-19T00:22:26;99000.75;;;24.70
42197;BMP280;27866;48.146;17.098;2023-09-19T00:26:37;99004.03;;;24.66
42197;BMP280;27866;48.146;17.098;2023-09-19T00:30:49;99011.78;;;24.55
42197;BMP280;27866;48.146;17.098;2023-09-19T00:35:06;99012.63;;;24.37
42197;BMP280;27866;48.146;17.098;2023-09-19T00:39:19;99007.81;;;24.09
42197;BMP280;27866;48.146;17.098;2023-09-19T00:43:31;99020.00;;;23.97
42197;BMP280;27866;48.146;17.098;2023-09-19T00:47:48;99010.84;;;23.81
42197;BMP280;27866;48.146;17.098;2023-09-19T00:51:59;99016.34;;;23.85
42197;BMP280;27866;48.146;17.098;2023-09-19T00:56:11;99011.06;;;23.79
42197;BMP280;27866;48.146;17.098;2023-09-19T01:00:22;99013.88;;;23.65
42197;BMP280;27866;48.146;17.098;2023-09-19T01:04:34;99026.47;;;23.57
42197;BMP280;27866;48.146;17.098;2023-09-19T01:08:46;99012.44;;;23.50
42197;BMP280;27866;48.146;17.098;2023-09-19T01:23:21;99025.97;;;23.16
42197;BMP280;27866;48.146;17.098;2023-09-19T01:32:23;99020.53;;;22.45
42197;BMP280;27866;48.146;17.098;2023-09-19T01:36:37;99026.50;;;22.33
42197;BMP280;27866;48.146;17.098;2023-09-19T01:41:04;99039.06;;;22.25
42197;BMP280;27866;48.146;17.098;2023-09-19T01:45:46;99038.03;;;21.99
42197;BMP280;27866;48.146;17.098;2023-09-19T01:50:21;99042.31;;;21.74
42197;BMP280;27866;48.146;17.098;2023-09-19T01:54:51;99037.06;;;21.60
42197;BMP280;27866;48.146;17.098;2023-09-19T01:59:16;99039.81;;;21.52
42197;BMP280;27866;48.146;17.098;2023-09-19T02:03:29;99044.34;;;21.58
42197;BMP280;27866;48.146;17.098;2023-09-19T02:07:42;99056.13;;;21.62
42197;BMP280;27866;48.146;17.098;2023-09-19T02:11:53;99063.59;;;21.38
42197;BMP280;27866;48.146;17.098;2023-09-19T02:16:07;99060.13;;;21.17
42197;BMP280;27866;48.146;17.098;2023-09-19T02:20:20;99060.44;;;21.08
42197;BMP280;27866;48.146;17.098;2023-09-19T02:24:32;99047.59;;;21.19
42197;BMP280;27866;48.146;17.098;2023-09-19T02:28:43;99056.56;;;21.24
42197;BMP280;27866;48.146;17.098;2023-09-19T02:32:55;99063.09;;;21.28
42197;BMP280;27866;48.146;17.098;2023-09-19T02:37:06;99064.69;;;21.29
42197;BMP280;27866;48.146;17.098;2023-09-19T02:41:19;99075.50;;;21.34
42197;BMP280;27866;48.146;17.098;2023-09-19T02:45:31;99065.28;;;21.25
42197;BMP280;27866;48.146;17.098;2023-09-19T02:49:43;99070.13;;;21.21
42197;BMP280;27866;48.146;17.098;2023-09-19T02:53:55;99064.38;;;21.18
42197;BMP280;27866;48.146;17.098;2023-09-19T02:58:07;99065.31;;;21.11
42197;BMP280;27866;48.146;17.098;2023-09-19T03:02:26;99070.56;;;21.11
42197;BMP280;27866;48.146;17.098;2023-09-19T03:06:39;99072.75;;;21.07
42197;BMP280;27866;48.146;17.098;2023-09-19T03:10:50;99067.03;;;20.90
42197;BMP280;27866;48.146;17.098;2023-09-19T03:15:02;99072.69;;;20.73
42197;BMP280;27866;48.146;17.098;2023-09-19T03:19:16;99077.88;;;20.53
42197;BMP280;27866;48.146;17.098;2023-09-19T03:23:29;99078.50;;;20.41
42197;BMP280;27866;48.146;17.098;2023-09-19T03:27:41;99076.06;;;20.39
42197;BMP280;27866;48.146;17.098;2023-09-19T03:31:53;99086.00;;;20.30
42197;BMP280;27866;48.146;17.098;2023-09-19T03:36:05;99091.38;;;20.00
42197;BMP280;27866;48.146;17.098;2023-09-19T03:40:17;99087.81;;;19.93
42197;BMP280;27866;48.146;17.098;2023-09-19T03:44:31;99092.28;;;19.93
42197;BMP280;27866;48.146;17.098;2023-09-19T03:48:42;99103.09;;;20.12
42197;BMP280;27866;48.146;17.098;2023-09-19T03:52:57;99110.84;;;20.27
42197;BMP280;27866;48.146;17.098;2023-09-19T03:57:08;99122.94;;;20.36
42197;BMP280;27866;48.146;17.098;2023-09-19T04:01:20;99128.28;;;20.42
42197;BMP280;27866;48.146;17.098;2023-09-19T04:05:32;99143.78;;;20.37
42197;BMP280;27866;48.146;17.098;2023-09-19T04:09:45;99144.25;;;20.41
42197;BMP280;27866;48.146;17.098;2023-09-19T04:13:57;99151.88;;;20.50
42197;BMP280;27866;48.146;17.098;2023-09-19T04:18:08;99150.97;;;20.43
42197;BMP280;27866;48.146;17.098;2023-09-19T04:22:20;99156.41;;;20.56
42197;BMP280;27866;48.146;17.098;2023-09-19T04:26:31;99152.44;;;20.60
42197;BMP280;27866;48.146;17.098;2023-09-19T04:30:43;99161.91;;;20.68
42197;BMP280;27866;48.146;17.098;2023-09-19T04:34:54;99170.06;;;20.73
42197;BMP280;27866;48.146;17.098;2023-09-19T04:39:05;99176.13;;;20.74
42197;BMP280;27866;48.146;17.098;2023-09-19T04:43:18;99179.03;;;20.78
42197;BMP280;27866;48.146;17.098;2023-09-19T04:47:29;99181.50;;;20.80
42197;BMP280;27866;48.146;17.098;2023-09-19T04:51:40;99191.41;;;20.78
42197;BMP280;27866;48.146;17.098;2023-09-19T04:55:52;99197.63;;;20.77
42197;BMP280;27866;48.146;17.098;2023-09-19T05:00:04;99200.56;;;20.82
42197;BMP280;27866;48.146;17.098;2023-09-19T05:04:23;99207.06;;;20.86
42197;BMP280;27866;48.146;17.098;2023-09-19T05:08:34;99205.44;;;20.85
42197;BMP280;27866;48.146;17.098;2023-09-19T05:12:45;99206.69;;;20.96
42197;BMP280;27866;48.146;17.098;2023-09-19T05:16:59;99212.94;;;21.09
42197;BMP280;27866;48.146;17.098;2023-09-19T05:21:10;99204.03;;;21.24
42197;BMP280;27866;48.146;17.098;2023-09-19T05:25:21;99204.91;;;21.31
42197;BMP280;27866;48.146;17.098;2023-09-19T05:29:33;99208.66;;;21.36
42197;BMP280;27866;48.146;17.098;2023-09-19T05:33:44;99218.00;;;21.39
42197;BMP280;27866;48.146;17.098;2023-09-19T05:37:55;99214.00;;;21.43
42197;BMP280;27866;48.146;17.098;2023-09-19T05:42:06;99215.53;;;21.51
42197;BMP280;27866;48.146;17.098;2023-09-19T05:46:19;99227.16;;;21.43
42197;BMP280;27866;48.146;17.098;2023-09-19T05:50:30;99237.06;;;21.41
42197;BMP280;27866;48.146;17.098;2023-09-19T05:54:43;99228.63;;;21.31
42197;BMP280;27866;48.146;17.098;2023-09-19T05:58:55;99240.72;;;21.40
42197;BMP280;27866;48.146;17.098;2023-09-19T06:03:07;99232.34;;;21.50
42197;BMP280;27866;48.146;17.098;2023-09-19T06:07:19;99243.84;;;21.63
42197;BMP280;27866;48.146;17.098;2023-09-19T06:11:30;99258.63;;;21.72
42197;BMP280;27866;48.146;17.098;2023-09-19T06:15:43;99258.13;;;21.83
42197;BMP280;27866;48.146;17.098;2023-09-19T06:19:54;99262.63;;;22.03
42197;BMP280;27866;48.146;17.098;2023-09-19T06:24:06;99256.66;;;22.15
42197;BMP280;27866;48.146;17.098;2023-09-19T06:28:18;99256.50;;;22.36
42197;BMP280;27866;48.146;17.098;2023-09-19T06:32:31;99259.91;;;22.51
42197;BMP280;27866;48.146;17.098;2023-09-19T06:36:42;99248.47;;;22.64
42197;BMP280;27866;48.146;17.098;2023-09-19T06:40:54;99237.28;;;22.89
42197;BMP280;27866;48.146;17.098;2023-09-19T06:45:06;99246.84;;;23.17
42197;BMP280;27866;48.146;17.098;2023-09-19T06:49:18;99249.97;;;23.26
42197;BMP280;27866;48.146;17.098;2023-09-19T06:53:31;99251.81;;;23.06
42197;BMP280;27866;48.146;17.098;2023-09-19T06:57:43;99262.41;;;23.06
42197;BMP280;27866;48.146;17.098;2023-09-19T07:01:54;99267.91;;;23.37
42197;BMP280;27866;48.146;17.098;2023-09-19T07:06:06;99286.03;;;23.40
42197;BMP280;27866;48.146;17.098;2023-09-19T07:10:17;99297.50;;;23.53
42197;BMP280;27866;48.146;17.098;2023-09-19T07:14:29;99304.69;;;23.65
42197;BMP280;27866;48.146;17.098;2023-09-19T07:18:41;99309.19;;;23.71
42197;BMP280;27866;48.146;17.098;2023-09-19T07:22:55;99314.53;;;23.77
42197;BMP280;27866;48.146;17.098;2023-09-19T07:27:06;99318.22;;;23.82
42197;BMP280;27866;48.146;17.098;2023-09-19T07:31:18;99326.28;;;24.08
42197;BMP280;27866;48.146;17.098;2023-09-19T07:35:29;99335.09;;;24.27
42197;BMP280;27866;48.146;17.098;2023-09-19T07:39:40;99345.56;;;24.47
42197;BMP280;27866;48.146;17.098;2023-09-19T07:43:52;99345.44;;;24.74
42197;BMP280;27866;48.146;17.098;2023-09-19T07:48:03;99356.03;;;24.80
42197;BMP280;27866;48.146;17.098;2023-09-19T07:52:15;99351.16;;;24.90
42197;BMP280;27866;48.146;17.098;2023-09-19T07:56:27;99361.81;;;25.09
42197;BMP280;27866;48.146;17.098;2023-09-19T08:00:38;99376.47;;;25.30
42197;BMP280;27866;48.146;17.098;2023-09-19T08:04:50;99373.41;;;25.39
42197;BMP280;27866;48.146;17.098;2023-09-19T08:09:03;99386.66;;;25.39
42197;BMP280;27866;48.146;17.098;2023-09-19T08:13:18;99385.66;;;25.40
42197;BMP280;27866;48.146;17.098;2023-09-19T08:17:35;99384.41;;;25.49
42197;BMP280;27866;48.146;17.098;2023-09-19T08:21:47;99399.31;;;25.43
42197;BMP280;27866;48.146;17.098;2023-09-19T08:25:59;99396.88;;;25.36
42197;BMP280;27866;48.146;17.098;2023-09-19T08:30:21;99408.31;;;25.24
42197;BMP280;27866;48.146;17.098;2023-09-19T08:34:36;99414.41;;;25.56
42197;BMP280;27866;48.146;17.098;2023-09-19T08:38:49;99406.34;;;26.25
42197;BMP280;27866;48.146;17.098;2023-09-19T08:43:00;99406.41;;;26.67
42197;BMP280;27866;48.146;17.098;2023-09-19T08:47:15;99415.56;;;26.10
42197;BMP280;27866;48.146;17.098;2023-09-19T08:51:45;99424.81;;;25.38
42197;BMP280;27866;48.146;17.098;2023-09-19T08:55:57;99430.31;;;25.43
42197;BMP280;27866;48.146;17.098;2023-09-19T09:00:13;99436.63;;;25.17
42197;BMP280;27866;48.146;17.098;2023-09-19T09:04:26;99431.50;;;25.03
42197;BMP280;27866;48.146;17.098;2023-09-19T09:08:39;99430.31;;;25.18
42197;BMP280;27866;48.146;17.098;2023-09-19T09:12:54;99438.88;;;25.45
42197;BMP280;27866;48.146;17.098;2023-09-19T09:17:08;99438.69;;;25.46
42197;BMP280;27866;48.146;17.098;2023-09-19T09:21:21;99443.97;;;25.15
42197;BMP280;27866;48.146;17.098;2023-09-19T09:25:50;99451.28;;;25.13
42197;BMP280;27866;48.146;17.098;2023-09-19T09:30:06;99454.34;;;25.16
42197;BMP280;27866;48.146;17.098;2023-09-19T09:34:19;99450.91;;;25.28
42197;BMP280;27866;48.146;17.098;2023-09-19T09:38:46;99448.69;;;25.26
42197;BMP280;27866;48.146;17.098;2023-09-19T09:42:59;99449.88;;;25.17
42197;BMP280;27866;48.146;17.098;2023-09-19T09:47:11;99441.94;;;25.11
42197;BMP280;27866;48.146;17.098;2023-09-19T09:51:49;99446.66;;;25.27
42197;BMP280;27866;48.146;17.098;2023-09-19T09:56:10;99449.44;;;25.07
42197;BMP280;27866;48.146;17.098;2023-09-19T10:00:22;99453.75;;;25.21
42197;BMP280;27866;48.146;17.098;2023-09-19T10:04:34;99456.63;;;25.38
42197;BMP280;27866;48.146;17.098;2023-09-19T10:09:05;99445.22;;;25.25
42197;BMP280;27866;48.146;17.098;2023-09-19T10:13:17;99459.25;;;25.13
42197;BMP280;27866;48.146;17.098;2023-09-19T10:17:34;99464.56;;;25.07
42197;BMP280;27866;48.146;17.098;2023-09-19T10:21:47;99464.59;;;25.26
42197;BMP280;27866;48.146;17.098;2023-09-19T10:26:00;99466.22;;;25.52
42197;BMP280;27866;48.146;17.098;2023-09-19T10:30:13;99468.69;;;25.85
42197;BMP280;27866;48.146;17.098;2023-09-19T10:34:25;99465.31;;;26.45
42197;BMP280;27866;48.146;17.098;2023-09-19T10:38:38;99457.84;;;27.92
42197;BMP280;27866;48.146;17.098;2023-09-19T10:42:51;99458.97;;;28.09
42197;BMP280;27866;48.146;17.098;2023-09-19T10:47:03;99465.66;;;28.70
42197;BMP280;27866;48.146;17.098;2023-09-19T10:51:22;99458.75;;;31.90
42197;BMP280;27866;48.146;17.098;2023-09-19T10:55:36;99444.28;;;32.07
42197;BMP280;27866;48.146;17.098;2023-09-19T11:00:07;99446.34;;;32.53
42197;BMP280;27866;48.146;17.098;2023-09-19T11:04:51;99449.94;;;32.63
42197;BMP280;27866;48.146;17.098;2023-09-19T11:09:04;99442.84;;;33.66
42197;BMP280;27866;48.146;17.098;2023-09-19T11:13:31;99455.22;;;34.33
42197;BMP280;27866;48.146;17.098;2023-09-19T11:17:45;99433.03;;;35.35
42197;BMP280;27866;48.146;17.098;2023-09-19T11:21:57;99438.59;;;34.40
42197;BMP280;27866;48.146;17.098;2023-09-19T11:26:40;99445.75;;;32.30
42197;BMP280;27866;48.146;17.098;2023-09-19T11:30:54;99442.25;;;31.34
42197;BMP280;27866;48.146;17.098;2023-09-19T11:35:09;99439.31;;;33.96
42197;BMP280;27866;48.146;17.098;2023-09-19T11:39:27;99425.81;;;38.38
42197;BMP280;27866;48.146;17.098;2023-09-19T11:43:38;99431.81;;;39.92
42197;BMP280;27866;48.146;17.098;2023-09-19T11:47:51;99443.84;;;39.87
42197;BMP280;27866;48.146;17.098;2023-09-19T11:52:03;99417.19;;;42.14
42197;BMP280;27866;48.146;17.098;2023-09-19T11:56:24;99398.38;;;40.67
42197;BMP280;27866;48.146;17.098;2023-09-19T12:00:38;99407.78;;;35.46
42197;BMP280;27866;48.146;17.098;2023-09-19T12:04:53;99418.38;;;34.92
42197;BMP280;27866;48.146;17.098;2023-09-19T12:09:05;99400.84;;;37.26
42197;BMP280;27866;48.146;17.098;2023-09-19T12:13:21;99399.00;;;37.54
42197;BMP280;27866;48.146;17.098;2023-09-19T12:22:01;99409.78;;;31.46
42197;BMP280;27866;48.146;17.098;2023-09-19T12:26:16;99421.41;;;34.51
42197;BMP280;27866;48.146;17.098;2023-09-19T12:30:28;99408.84;;;39.54
42197;BMP280;27866;48.146;17.098;2023-09-19T12:34:51;99387.84;;;39.29
42197;BMP280;27866;48.146;17.098;2023-09-19T12:39:03;99396.94;;;35.12
42197;BMP280;27866;48.146;17.098;2023-09-19T12:43:20;99404.56;;;32.77
42197;BMP280;27866;48.146;17.098;2023-09-19T12:47:31;99404.56;;;32.77
42197;BMP280;27866;48.146;17.098;2023-09-19T12:51:49;99423.06;;;30.98
42197;BMP280;27866;48.146;17.098;2023-09-19T12:56:00;99427.31;;;29.90
42197;BMP280;27866;48.146;17.098;2023-09-19T13:00:12;99426.00;;;28.91
42197;BMP280;27866;48.146;17.098;2023-09-19T13:04:23;99430.25;;;28.46
42197;BMP280;27866;48.146;17.098;2023-09-19T13:08:40;99437.22;;;28.29
42197;BMP280;27866;48.146;17.098;2023-09-19T13:12:53;99428.94;;;29.29
42197;BMP280;27866;48.146;17.098;2023-09-19T13:17:07;99404.88;;;31.70
42197;BMP280;27866;48.146;17.098;2023-09-19T13:21:33;99417.34;;;36.63
42197;BMP280;27866;48.146;17.098;2023-09-19T13:25:53;99421.13;;;37.65
42197;BMP280;27866;48.146;17.098;2023-09-19T13:30:06;99409.94;;;34.70
42197;BMP280;27866;48.146;17.098;2023-09-19T13:34:17;99423.97;;;31.74
42197;BMP280;27866;48.146;17.098;2023-09-19T13:38:28;99433.59;;;30.17
42197;BMP280;27866;48.146;17.098;2023-09-19T13:42:41;99444.03;;;28.43
42197;BMP280;27866;48.146;17.098;2023-09-19T13:46:53;99433.06;;;27.21
42197;BMP280;27866;48.146;17.098;2023-09-19T13:51:05;99433.34;;;26.71
42197;BMP280;27866;48.146;17.098;2023-09-19T13:55:17;99435.72;;;26.36
42197;BMP280;27866;48.146;17.098;2023-09-19T13:59:31;99445.97;;;26.14
42197;BMP280;27866;48.146;17.098;2023-09-19T14:03:42;99458.47;;;25.94
42197;BMP280;27866;48.146;17.098;2023-09-19T14:07:58;99460.34;;;25.75
42197;BMP280;27866;48.146;17.098;2023-09-19T14:12:14;99456.88;;;25.68
42197;BMP280;27866;48.146;17.098;2023-09-19T14:16:26;99464.00;;;25.74
42197;BMP280;27866;48.146;17.098;2023-09-19T14:20:41;99446.63;;;25.90
42197;BMP280;27866;48.146;17.098;2023-09-19T14:24:52;99436.03;;;25.97
42197;BMP280;27866;48.146;17.098;2023-09-19T14:29:04;99441.72;;;26.06
42197;BMP280;27866;48.146;17.098;2023-09-19T14:33:15;99451.72;;;25.98
42197;BMP280;27866;48.146;17.098;2023-09-19T14:37:26;99446.25;;;25.81
42197;BMP280;27866;48.146;17.098;2023-09-19T14:41:39;99465.44;;;25.76
42197;BMP280;27866;48.146;17.098;2023-09-19T14:45:50;99471.97;;;25.61
42197;BMP280;27866;48.146;17.098;2023-09-19T14:50:03;99460.72;;;25.59
42197;BMP280;27866;48.146;17.098;2023-09-19T14:54:17;99454.78;;;25.45
42197;BMP280;27866;48.146;17.098;2023-09-19T14:58:30;99455.59;;;25.39
42197;BMP280;27866;48.146;17.098;2023-09-19T15:02:42;99453.16;;;25.38
42197;BMP280;27866;48.146;17.098;2023-09-19T15:06:53;99456.84;;;25.30
42197;BMP280;27866;48.146;17.098;2023-09-19T15:11:09;99460.50;;;25.36
42197;BMP280;27866;48.146;17.098;2023-09-19T15:15:21;99460.72;;;25.53
42197;BMP280;27866;48.146;17.098;2023-09-19T15:19:32;99466.22;;;25.64
42197;BMP280;27866;48.146;17.098;2023-09-19T15:23:44;99468.22;;;26.93
42197;BMP280;27866;48.146;17.098;2023-09-19T15:27:56;99459.31;;;27.11
42197;BMP280;27866;48.146;17.098;2023-09-19T15:32:08;99471.66;;;27.00
42197;BMP280;27866;48.146;17.098;2023-09-19T15:36:22;99466.06;;;26.65
42197;BMP280;27866;48.146;17.098;2023-09-19T15:40:34;99470.25;;;26.36
42197;BMP280;27866;48.146;17.098;2023-09-19T15:44:46;99466.22;;;26.02
42197;BMP280;27866;48.146;17.098;2023-09-19T15:48:59;99472.78;;;25.74
42197;BMP280;27866;48.146;17.098;2023-09-19T15:53:11;99472.75;;;25.43
42197;BMP280;27866;48.146;17.098;2023-09-19T15:57:25;99482.91;;;25.14
42197;BMP280;27866;48.146;17.098;2023-09-19T16:01:38;99492.16;;;24.85
42197;BMP280;27866;48.146;17.098;2023-09-19T16:05:51;99480.69;;;24.66
42197;BMP280;27866;48.146;17.098;2023-09-19T16:10:02;99477.75;;;24.49
42197;BMP280;27866;48.146;17.098;2023-09-19T16:14:14;99480.09;;;24.31
42197;BMP280;27866;48.146;17.098;2023-09-19T16:18:26;99476.16;;;24.21
42197;BMP280;27866;48.146;17.098;2023-09-19T16:22:38;99475.84;;;24.04
42197;BMP280;27866;48.146;17.098;2023-09-19T16:26:50;99470.84;;;23.88
42197;BMP280;27866;48.146;17.098;2023-09-19T16:31:04;99474.69;;;23.66
42197;BMP280;27866;48.146;17.098;2023-09-19T16:35:15;99480.66;;;23.47
42197;BMP280;27866;48.146;17.098;2023-09-19T16:39:27;99480.09;;;23.31
42197;BMP280;27866;48.146;17.098;2023-09-19T16:43:38;99480.41;;;23.22
42197;BMP280;27866;48.146;17.098;2023-09-19T16:47:49;99480.44;;;23.08
42197;BMP280;27866;48.146;17.098;2023-09-19T16:52:00;99476.66;;;22.96
42197;BMP280;27866;48.146;17.098;2023-09-19T16:56:13;99480.16;;;22.83
42197;BMP280;27866;48.146;17.098;2023-09-19T17:00:25;99485.53;;;22.75
42197;BMP280;27866;48.146;17.098;2023-09-19T17:04:37;99491.88;;;22.60
42197;BMP280;27866;48.146;17.098;2023-09-19T17:08:50;99492.88;;;22.45
42197;BMP280;27866;48.146;17.098;2023-09-19T17:13:05;99496.69;;;22.43
42197;BMP280;27866;48.146;17.098;2023-09-19T17:17:19;99502.22;;;22.34
42197;BMP280;27866;48.146;17.098;2023-09-19T17:21:31;99505.59;;;22.28
42197;BMP280;27866;48.146;17.098;2023-09-19T17:25:42;99516.81;;;22.16
42197;BMP280;27866;48.146;17.098;2023-09-19T17:29:54;99516.31;;;22.12
42197;BMP280;27866;48.146;17.098;2023-09-19T17:34:05;99527.63;;;22.06
42197;BMP280;27866;48.146;17.098;2023-09-19T17:38:17;99528.97;;;22.03
42197;BMP280;27866;48.146;17.098;2023-09-19T17:42:28;99534.34;;;22.09
42197;BMP280;27866;48.146;17.098;2023-09-19T17:46:39;99533.16;;;22.11
42197;BMP280;27866;48.146;17.098;2023-09-19T17:51:02;99529.06;;;22.09
42197;BMP280;27866;48.146;17.098;2023-09-19T17:55:14;99524.69;;;22.02
42197;BMP280;27866;48.146;17.098;2023-09-19T17:59:27;99539.22;;;21.98
42197;BMP280;27866;48.146;17.098;2023-09-19T18:03:40;99541.41;;;21.94
42197;BMP280;27866;48.146;17.098;2023-09-19T18:07:54;99542.13;;;21.89
42197;BMP280;27866;48.146;17.098;2023-09-19T18:12:06;99547.13;;;21.84
42197;BMP280;27866;48.146;17.098;2023-09-19T18:16:18;99549.94;;;21.82
42197;BMP280;27866;48.146;17.098;2023-09-19T18:20:34;99563.03;;;21.76
42197;BMP280;27866;48.146;17.098;2023-09-19T18:24:45;99551.69;;;21.68
42197;BMP280;27866;48.146;17.098;2023-09-19T18:28:56;99554.19;;;21.62
42197;BMP280;27866;48.146;17.098;2023-09-19T18:33:09;99561.63;;;21.58
42197;BMP280;27866;48.146;17.098;2023-09-19T18:37:20;99560.34;;;21.54
42197;BMP280;27866;48.146;17.098;2023-09-19T18:41:31;99567.97;;;21.49
42197;BMP280;27866;48.146;17.098;2023-09-19T18:45:57;99562.41;;;21.45
42197;BMP280;27866;48.146;17.098;2023-09-19T18:50:09;99571.31;;;21.44
42197;BMP280;27866;48.146;17.098;2023-09-19T18:54:20;99572.94;;;21.45
42197;BMP280;27866;48.146;17.098;2023-09-19T18:58:31;99578.84;;;21.47
42197;BMP280;27866;48.146;17.098;2023-09-19T19:02:43;99573.13;;;21.43
42197;BMP280;27866;48.146;17.098;2023-09-19T19:06:54;99583.19;;;21.40
42197;BMP280;27866;48.146;17.098;2023-09-19T19:11:10;99581.53;;;21.39
42197;BMP280;27866;48.146;17.098;2023-09-19T19:15:25;99584.19;;;21.39
42197;BMP280;27866;48.146;17.098;2023-09-19T19:19:37;99592.09;;;21.39
42197;BMP280;27866;48.146;17.098;2023-09-19T19:23:50;99596.56;;;21.38
42197;BMP280;27866;48.146;17.098;2023-09-19T19:28:04;99591.47;;;21.29
42197;BMP280;27866;48.146;17.098;2023-09-19T19:32:16;99595.81;;;21.22
42197;BMP280;27866;48.146;17.098;2023-09-19T19:36:27;99601.97;;;21.15
42197;BMP280;27866;48.146;17.098;2023-09-19T19:40:38;99614.16;;;21.08
42197;BMP280;27866;48.146;17.098;2023-09-19T19:44:49;99609.44;;;21.04
42197;BMP280;27866;48.146;17.098;2023-09-19T19:49:04;99609.28;;;20.98
42197;BMP280;27866;48.146;17.098;2023-09-19T19:53:18;99605.13;;;21.03
42197;BMP280;27866;48.146;17.098;2023-09-19T19:57:30;99612.25;;;20.95
42197;BMP280;27866;48.146;17.098;2023-09-19T20:01:42;99612.38;;;21.01
42197;BMP280;27866;48.146;17.098;2023-09-19T20:05:53;99617.34;;;21.04
42197;BMP280;27866;48.146;17.098;2023-09-19T20:10:06;99615.97;;;21.16
42197;BMP280;27866;48.146;17.098;2023-09-19T20:14:17;99616.84;;;21.30
42197;BMP280;27866;48.146;17.098;2023-09-19T20:18:28;99607.25;;;21.37
42197;BMP280;27866;48.146;17.098;2023-09-19T20:22:43;99609.38;;;21.41
42197;BMP280;27866;48.146;17.098;2023-09-19T20:26:56;99623.38;;;21.42
42197;BMP280;27866;48.146;17.098;2023-09-19T20:31:12;99628.53;;;21.28
42197;BMP280;27866;48.146;17.098;2023-09-19T20:35:25;99631.91;;;21.14
42197;BMP280;27866;48.146;17.098;2023-09-19T20:39:38;99630.03;;;21.01
42197;BMP280;27866;48.146;17.098;2023-09-19T20:43:49;99632.81;;;20.91
42197;BMP280;27866;48.146;17.098;2023-09-19T20:48:01;99638.81;;;20.78
42197;BMP280;27866;48.146;17.098;2023-09-19T20:52:12;99642.13;;;20.72
42197;BMP280;27866;48.146;17.098;2023-09-19T20:56:23;99644.41;;;20.67
42197;BMP280;27866;48.146;17.098;2023-09-19T21:00:40;99649.00;;;20.73
42197;BMP280;27866;48.146;17.098;2023-09-19T21:04:52;99643.59;;;20.67
42197;BMP280;27866;48.146;17.098;2023-09-19T21:09:03;99641.50;;;20.55
42197;BMP280;27866;48.146;17.098;2023-09-19T21:13:15;99645.66;;;20.42
42197;BMP280;27866;48.146;17.098;2023-09-19T21:17:27;99652.41;;;20.29
42197;BMP280;27866;48.146;17.098;2023-09-19T21:21:39;99659.13;;;20.23
42197;BMP280;27866;48.146;17.098;2023-09-19T21:25:54;99660.31;;;20.21
42197;BMP280;27866;48.146;17.098;2023-09-19T21:30:06;99658.34;;;20.23
42197;BMP280;27866;48.146;17.098;2023-09-19T21:34:18;99662.41;;;20.25
42197;BMP280;27866;48.146;17.098;2023-09-19T21:38:29;99657.50;;;20.22
42197;BMP280;27866;48.146;17.098;2023-09-19T21:42:40;99671.63;;;20.21
42197;BMP280;27866;48.146;17.098;2023-09-19T21:46:52;99682.44;;;20.18
42197;BMP280;27866;48.146;17.098;2023-09-19T21:51:06;99679.50;;;20.14
42197;BMP280;27866;48.146;17.098;2023-09-19T21:55:17;99687.53;;;20.12
42197;BMP280;27866;48.146;17.098;2023-09-19T21:59:29;99677.84;;;20.13
42197;BMP280;27866;48.146;17.098;2023-09-19T22:03:41;99684.16;;;20.19
42197;BMP280;27866;48.146;17.098;2023-09-19T22:07:52;99680.69;;;20.27
42197;BMP280;27866;48.146;17.098;2023-09-19T22:12:03;99688.41;;;20.20
42197;BMP280;27866;48.146;17.098;2023-09-19T22:16:17;99679.34;;;20.07
42197;BMP280;27866;48.146;17.098;2023-09-19T22:20:29;99678.03;;;19.96
42197;BMP280;27866;48.146;17.098;2023-09-19T22:24:40;99682.13;;;19.90
42197;BMP280;27866;48.146;17.098;2023-09-19T22:28:56;99678.19;;;19.87
42197;BMP280;27866;48.146;17.098;2023-09-19T22:33:08;99685.09;;;19.80
42197;BMP280;27866;48.146;17.098;2023-09-19T22:37:21;99677.81;;;19.82
42197;BMP280;27866;48.146;17.098;2023-09-19T22:41:36;99679.97;;;19.71
42197;BMP280;27866;48.146;17.098;2023-09-19T22:45:50;99678.47;;;19.60
42197;BMP280;27866;48.146;17.098;2023-09-19T22:50:01;99681.28;;;19.59
42197;BMP280;27866;48.146;17.098;2023-09-19T22:54:23;99681.78;;;19.62
42197;BMP280;27866;48.146;17.098;2023-09-19T22:58:43;99678.81;;;19.65
42197;BMP280;27866;48.146;17.098;2023-09-19T23:02:55;99688.34;;;19.66
42197;BMP280;27866;48.146;17.098;2023-09-19T23:07:08;99682.44;;;19.64
42197;BMP280;27866;48.146;17.098;2023-09-19T23:11:20;99681.28;;;19.59
42197;BMP280;27866;48.146;17.098;2023-09-19T23:15:40;99689.28;;;19.58
42197;BMP280;27866;48.146;17.098;2023-09-19T23:19:52;99686.84;;;19.56
42197;BMP280;27866;48.146;17.098;2023-09-19T23:24:06;99697.38;;;19.64
42197;BMP280;27866;48.146;17.098;2023-09-19T23:28:18;99706.06;;;19.57
42197;BMP280;27866;48.146;17.098;2023-09-19T23:32:30;99697.97;;;19.50
42197;BMP280;27866;48.146;17.098;2023-09-19T23:36:41;99700.59;;;19.43
42197;BMP280;27866;48.146;17.098;2023-09-19T23:40:54;99712.41;;;19.46
42197;BMP280;27866;48.146;17.098;2023-09-19T23:45:05;99698.97;;;19.49
42197;BMP280;27866;48.146;17.098;2023-09-19T23:49:19;99716.19;;;19.52
42197;BMP280;27866;48.146;17.098;2023-09-19T23:53:32;99710.81;;;19.53
42197;BMP280;27866;48.146;17.098;2023-09-19T23:57:44;99713.59;;;19.59
